Terminal Aerodrome Forecast
Issued by NWS Billings, MT

Home | Current Version | Previous Version | Graphics & Text | Print | Product List | Glossary On
Versions: 1 2 3 4 5 6 7 8 9 10 11 12 13 14 15 16 17
000
FTUS45 KBYZ 291727
TAFMLS
TAF
KMLS 291727Z 2918/3018 15003KT P6SM OVC070
     FM292000 29015G24KT P6SM BKN080
     FM300100 32010KT P6SM SCT100
     FM300300 32008KT P6SM FEW100
     FM301500 08005KT P6SM SKC=

USA.gov is the U.S. government's official web portal to all federal, state and local government web resources and services.